createdAt,value
2017-07-23T00:00:13.151Z,42.17
2017-07-23T00:02:40.593Z,32.07
2017-07-23T00:05:08.040Z,36.77
2017-07-23T00:07:35.532Z,31.63
2017-07-23T00:10:02.982Z,40.67
2017-07-23T00:12:30.435Z,30.70
2017-07-23T00:14:57.909Z,38.80
2017-07-23T00:17:25.753Z,32.97
2017-07-23T00:19:53.200Z,30.33
2017-07-23T00:22:20.691Z,36.73
2017-07-23T00:24:48.536Z,31.20
2017-07-23T00:27:15.984Z,32.63
2017-07-23T00:29:43.455Z,34.70
2017-07-23T00:32:10.904Z,37.30
2017-07-23T00:34:38.350Z,31.30
2017-07-23T00:37:06.099Z,37.53
2017-07-23T00:39:33.541Z,36.53
2017-07-23T00:42:00.993Z,38.93
2017-07-23T00:44:28.673Z,45.27
2017-07-23T00:46:56.124Z,38.80
2017-07-23T00:49:23.564Z,38.00
2017-07-23T00:51:51.056Z,30.70
2017-07-23T00:54:18.504Z,33.50
2017-07-23T00:56:45.948Z,36.77
2017-07-23T00:59:13.427Z,32.37
2017-07-23T01:01:41.269Z,32.80
2017-07-23T01:04:08.716Z,33.83
2017-07-23T01:06:36.381Z,42.37
2017-07-23T01:09:03.832Z,36.33
2017-07-23T01:11:31.276Z,31.20
2017-07-23T01:13:58.756Z,33.67
2017-07-23T01:16:26.200Z,33.77
2017-07-23T01:18:53.648Z,34.07
2017-07-23T01:21:21.124Z,37.63
2017-07-23T01:23:48.578Z,32.93
2017-07-23T01:26:16.017Z,33.97
2017-07-23T01:28:43.488Z,31.60
2017-07-23T01:31:10.940Z,33.67
2017-07-23T01:33:38.385Z,29.67
2017-07-23T01:36:06.663Z,29.83
2017-07-23T01:38:34.113Z,38.33
2017-07-23T01:41:01.560Z,29.90
2017-07-23T01:43:29.113Z,30.50
2017-07-23T01:45:56.561Z,34.83
2017-07-23T01:48:24.006Z,29.33
2017-07-23T01:50:51.472Z,33.93
2017-07-23T01:53:18.916Z,32.27
2017-07-23T01:55:46.371Z,41.30
2017-07-23T01:58:14.165Z,39.20
2017-07-23T02:00:41.613Z,28.83
2017-07-23T02:03:09.059Z,32.97
2017-07-23T02:05:36.916Z,32.33
2017-07-23T02:08:04.373Z,30.53
2017-07-23T02:10:31.824Z,34.10
2017-07-23T02:12:59.296Z,34.23
2017-07-23T02:15:26.748Z,35.80
2017-07-23T02:17:54.193Z,38.20
2017-07-23T02:20:21.668Z,33.90
2017-07-23T02:22:49.113Z,42.23
2017-07-23T02:25:16.560Z,35.90
2017-07-23T02:27:44.028Z,32.70
2017-07-23T02:30:11.477Z,35.03
2017-07-23T02:32:38.920Z,33.67
2017-07-23T02:35:06.407Z,33.07
2017-07-23T02:37:33.857Z,33.07
2017-07-23T02:40:01.304Z,32.97
2017-07-23T02:42:28.761Z,31.83
2017-07-23T02:44:56.208Z,32.80
2017-07-23T02:47:23.664Z,36.90
2017-07-23T02:49:51.853Z,33.07
2017-07-23T02:52:19.306Z,35.67
2017-07-23T02:54:46.748Z,36.40
2017-07-23T02:57:14.312Z,42.97
2017-07-23T02:59:41.760Z,35.97
2017-07-23T03:02:09.199Z,33.80
2017-07-23T03:04:36.678Z,36.73
2017-07-23T03:07:04.125Z,38.10
2017-07-23T03:09:31.568Z,38.23
2017-07-23T03:11:59.455Z,41.23
2017-07-23T03:14:26.900Z,42.00
2017-07-23T03:16:54.344Z,44.67
2017-07-23T03:19:21.816Z,44.50
2017-07-23T03:21:49.264Z,46.23
2017-07-23T03:24:16.705Z,42.53
2017-07-23T03:26:44.190Z,44.57
2017-07-23T03:29:11.638Z,44.20
2017-07-23T03:31:39.084Z,49.87
2017-07-23T03:34:06.553Z,45.10
2017-07-23T03:36:34.000Z,45.93
2017-07-23T03:39:01.447Z,48.17
2017-07-23T03:41:28.924Z,49.40
2017-07-23T03:43:56.369Z,44.57
2017-07-23T03:46:24.717Z,46.53
2017-07-23T03:48:52.409Z,44.40
2017-07-23T03:51:19.861Z,46.90
2017-07-23T03:53:47.306Z,44.57
2017-07-23T03:56:15.184Z,41.80
2017-07-23T03:58:42.629Z,45.63
2017-07-23T04:01:10.081Z,43.63
2017-07-23T04:03:37.856Z,45.47
2017-07-23T04:06:05.301Z,40.50
2017-07-23T04:08:32.751Z,55.17
2017-07-23T04:11:00.459Z,42.17
2017-07-23T04:13:27.905Z,46.67
2017-07-23T04:15:55.758Z,40.07
2017-07-23T04:18:23.380Z,41.20
2017-07-23T04:20:50.837Z,41.13
2017-07-23T04:23:18.293Z,42.50
2017-07-23T04:25:45.760Z,43.33
2017-07-23T04:28:13.217Z,36.60
2017-07-23T04:30:40.663Z,42.30
2017-07-23T04:33:08.137Z,35.40
2017-07-23T04:35:35.590Z,40.50
2017-07-23T04:38:03.033Z,35.43
2017-07-23T04:40:30.532Z,37.23
2017-07-23T04:42:57.984Z,33.10
2017-07-23T04:45:25.433Z,31.83
2017-07-23T04:47:53.067Z,33.00
2017-07-23T04:50:20.517Z,36.03
2017-07-23T04:52:47.970Z,36.80
2017-07-23T04:55:15.449Z,33.40
2017-07-23T04:57:42.896Z,37.93
2017-07-23T05:00:11.017Z,37.07
2017-07-23T05:02:38.509Z,36.03
2017-07-23T05:05:05.961Z,37.27
2017-07-23T05:07:33.408Z,38.40
2017-07-23T05:10:01.088Z,38.57
2017-07-23T05:12:28.544Z,41.03
2017-07-23T05:14:55.992Z,41.67
2017-07-23T05:17:23.468Z,45.53
2017-07-23T05:19:50.913Z,43.90
2017-07-23T05:22:18.356Z,44.53
2017-07-23T05:24:46.124Z,45.87
2017-07-23T05:27:13.577Z,43.77
2017-07-23T05:29:41.024Z,43.57
2017-07-23T05:32:08.613Z,44.40
2017-07-23T05:34:36.063Z,41.30
2017-07-23T05:37:03.519Z,41.70
2017-07-23T05:39:31.248Z,40.27
2017-07-23T05:41:58.696Z,38.97
2017-07-23T05:44:26.149Z,39.37
2017-07-23T05:46:53.613Z,38.70
2017-07-23T05:49:21.075Z,34.97
2017-07-23T05:51:48.516Z,32.00
2017-07-23T05:54:16.092Z,37.50
2017-07-23T05:56:43.537Z,29.83
2017-07-23T05:59:10.983Z,30.03
2017-07-23T06:01:38.460Z,29.77
2017-07-23T06:04:05.908Z,33.50
2017-07-23T06:06:33.353Z,30.03
2017-07-23T06:09:00.835Z,25.57
2017-07-23T06:11:28.286Z,26.90
2017-07-23T06:13:55.728Z,26.53
2017-07-23T06:16:23.361Z,25.37
2017-07-23T06:18:50.816Z,27.60
2017-07-23T06:21:18.256Z,27.43
2017-07-23T06:23:45.812Z,26.00
2017-07-23T06:26:13.261Z,27.60
2017-07-23T06:28:40.716Z,32.07
2017-07-23T06:31:08.436Z,31.27
2017-07-23T06:33:35.881Z,35.70
2017-07-23T06:36:03.328Z,34.20
2017-07-23T06:38:30.807Z,34.93
2017-07-23T06:40:58.249Z,55.43
2017-07-23T06:43:25.692Z,39.23
2017-07-23T06:45:53.171Z,37.90
2017-07-23T06:48:20.632Z,37.27
2017-07-23T06:50:48.081Z,36.23
2017-07-23T06:53:15.548Z,40.10
2017-07-23T06:55:43.000Z,38.03
2017-07-23T06:58:10.452Z,36.50
2017-07-23T07:00:37.936Z,35.07
2017-07-23T07:03:05.384Z,33.97
2017-07-23T07:05:32.832Z,35.90
2017-07-23T07:08:00.544Z,29.23
2017-07-23T07:10:27.992Z,29.33
2017-07-23T07:12:55.444Z,28.63
2017-07-23T07:15:22.919Z,27.70
2017-07-23T07:17:50.362Z,26.40
2017-07-23T07:20:17.820Z,24.43
2017-07-23T07:22:45.717Z,26.00
2017-07-23T07:25:13.155Z,24.67
2017-07-23T07:27:40.608Z,23.13
2017-07-23T07:30:08.107Z,25.23
2017-07-23T07:32:35.956Z,25.37
2017-07-23T07:35:03.400Z,29.77
2017-07-23T07:37:31.267Z,26.50
2017-07-23T07:39:58.724Z,25.60
2017-07-23T07:42:26.173Z,24.60
2017-07-23T07:44:53.937Z,23.53
2017-07-23T07:47:21.384Z,23.10
2017-07-23T07:49:48.861Z,24.53
2017-07-23T07:52:16.340Z,19.23
2017-07-23T07:54:43.787Z,20.13
2017-07-23T07:57:11.232Z,17.97
2017-07-23T07:59:39.117Z,17.53
2017-07-23T08:02:06.564Z,18.20
2017-07-23T08:04:34.007Z,20.40
2017-07-23T08:07:01.972Z,14.40
2017-07-23T08:09:29.419Z,16.50
2017-07-23T08:11:57.441Z,12.67
2017-07-23T08:14:24.929Z,13.33
2017-07-23T08:16:52.366Z,14.13
2017-07-23T08:19:19.910Z,12.57
2017-07-23T08:21:47.576Z,12.40
2017-07-23T08:24:15.049Z,10.03
2017-07-23T08:26:42.492Z,11.87
2017-07-23T08:29:09.973Z,11.17
2017-07-23T08:31:37.419Z,13.10
2017-07-23T08:34:04.881Z,10.53
2017-07-23T08:36:32.349Z,10.67
2017-07-23T08:38:59.787Z,10.80
2017-07-23T08:41:27.241Z,9.27
2017-07-23T08:43:54.706Z,12.27
2017-07-23T08:46:22.154Z,8.40
2017-07-23T08:48:49.592Z,8.13
2017-07-23T08:51:17.148Z,8.00
2017-07-23T08:53:44.593Z,7.50
2017-07-23T08:56:12.031Z,5.30
2017-07-23T08:58:39.605Z,5.50
2017-07-23T09:01:07.050Z,4.80
2017-07-23T09:03:34.489Z,5.33
2017-07-23T09:06:01.944Z,5.00
2017-07-23T09:08:29.389Z,5.70
2017-07-23T09:10:56.834Z,4.47
2017-07-23T09:13:24.874Z,5.00
2017-07-23T09:15:52.307Z,5.17
2017-07-23T09:20:54.078Z,4.70
2017-07-23T09:23:21.520Z,5.00
2017-07-23T09:25:48.955Z,4.63
2017-07-23T09:28:16.720Z,4.67
2017-07-23T09:30:44.159Z,5.07
2017-07-23T09:33:11.629Z,5.90
2017-07-23T09:35:39.294Z,5.63
2017-07-23T09:38:07.121Z,6.00
2017-07-23T09:40:34.562Z,11.20
2017-07-23T09:43:02.032Z,7.43
2017-07-23T09:45:29.471Z,7.60
2017-07-23T09:47:56.916Z,7.60
2017-07-23T09:50:24.589Z,7.43
2017-07-23T09:52:52.084Z,7.37
2017-07-23T09:55:19.912Z,7.80
2017-07-23T09:57:47.393Z,8.87
2017-07-23T10:00:14.840Z,9.00
2017-07-23T10:02:42.282Z,8.10
2017-07-23T10:05:09.746Z,8.30
2017-07-23T10:07:37.185Z,8.37
2017-07-23T10:10:04.634Z,7.70
2017-07-23T10:12:32.103Z,5.93
2017-07-23T10:14:59.547Z,5.80
2017-07-23T10:17:26.989Z,7.10
2017-07-23T10:19:54.469Z,7.20
2017-07-23T10:22:21.915Z,9.27
2017-07-23T10:24:49.380Z,10.07
2017-07-23T10:27:17.034Z,10.07
2017-07-23T10:29:44.472Z,9.50
2017-07-23T10:32:11.913Z,9.37
2017-07-23T10:34:39.467Z,9.77
2017-07-23T10:37:06.961Z,8.43
2017-07-23T10:39:34.395Z,9.03
2017-07-23T10:42:01.919Z,9.40
2017-07-23T10:44:29.359Z,7.47
2017-07-23T10:46:56.821Z,7.70
2017-07-23T10:49:24.294Z,8.27
2017-07-23T10:51:51.775Z,7.83
2017-07-23T10:54:19.199Z,8.07
2017-07-23T10:56:47.018Z,7.53
2017-07-23T10:59:14.455Z,8.10
2017-07-23T11:01:41.923Z,7.57
2017-07-23T11:04:09.428Z,7.67
2017-07-23T11:06:36.870Z,8.10
2017-07-23T11:09:04.314Z,8.23
2017-07-23T11:11:32.177Z,9.07
2017-07-23T11:13:59.644Z,8.67
2017-07-23T11:16:27.471Z,9.60
2017-07-23T11:18:54.965Z,12.97
2017-07-23T11:21:22.409Z,11.30
2017-07-23T11:23:50.248Z,9.37
2017-07-23T11:26:17.736Z,9.80
2017-07-23T11:28:45.569Z,10.97
2017-07-23T11:31:13.020Z,10.57
2017-07-23T11:33:40.592Z,9.23
2017-07-23T11:36:08.148Z,9.67
2017-07-23T11:38:35.589Z,10.70
2017-07-23T11:41:03.074Z,11.27
2017-07-23T11:43:30.917Z,10.80
2017-07-23T11:45:58.408Z,11.97
2017-07-23T11:48:26.111Z,10.80
2017-07-23T11:50:53.617Z,10.93
2017-07-23T11:53:21.064Z,10.40
2017-07-23T11:55:48.948Z,10.40
2017-07-23T11:58:16.389Z,9.97
2017-07-23T12:00:44.228Z,9.80
2017-07-23T12:03:11.847Z,9.73
2017-07-23T12:05:39.319Z,10.20
2017-07-23T12:08:06.797Z,10.07
2017-07-23T12:10:34.545Z,9.80
2017-07-23T12:13:01.992Z,9.10
2017-07-23T12:15:29.442Z,10.67
2017-07-23T12:17:56.963Z,9.03
2017-07-23T12:20:24.407Z,12.63
2017-07-23T12:22:51.888Z,7.33
2017-07-23T12:25:19.355Z,6.97
2017-07-23T12:27:46.805Z,7.40
2017-07-23T12:30:14.258Z,6.43
2017-07-23T12:32:41.820Z,6.07
2017-07-23T12:35:09.253Z,8.27
2017-07-23T12:37:36.699Z,6.23
2017-07-23T12:40:04.357Z,7.20
2017-07-23T12:42:32.252Z,7.93
2017-07-23T12:44:59.680Z,6.90
2017-07-23T12:47:27.148Z,6.07
2017-07-23T12:49:54.620Z,6.23
2017-07-23T12:52:22.072Z,6.60
2017-07-23T12:54:49.572Z,8.20
2017-07-23T12:57:17.018Z,5.17
2017-07-23T12:59:44.464Z,6.23
2017-07-23T13:02:12.037Z,6.30
2017-07-23T13:04:39.476Z,8.00
2017-07-23T13:07:06.916Z,5.30
2017-07-23T13:09:34.393Z,5.87
2017-07-23T13:12:01.851Z,4.97
2017-07-23T13:14:29.280Z,4.33
2017-07-23T13:16:56.848Z,4.30
2017-07-23T13:19:24.296Z,5.13
2017-07-23T13:21:51.747Z,5.27
2017-07-23T13:24:19.247Z,6.23
2017-07-23T13:26:46.752Z,4.93
2017-07-23T13:29:14.180Z,4.63
2017-07-23T13:31:41.917Z,4.30
2017-07-23T13:34:09.382Z,6.23
2017-07-23T13:36:37.219Z,4.40
2017-07-23T13:39:04.784Z,4.10
2017-07-23T13:41:32.263Z,5.13
2017-07-23T13:44:00.105Z,3.63
2017-07-23T13:46:28.892Z,4.70
2017-07-23T13:48:56.332Z,5.20
2017-07-23T13:51:23.776Z,3.70
2017-07-23T13:53:51.553Z,4.37
2017-07-23T13:56:18.988Z,4.93
2017-07-23T13:58:46.432Z,4.17
2017-07-23T14:01:13.889Z,5.43
2017-07-23T14:03:41.328Z,4.33
2017-07-23T14:06:08.806Z,5.60
2017-07-23T14:08:36.484Z,5.60
2017-07-23T14:11:03.929Z,4.90
2017-07-23T14:13:31.372Z,5.57
2017-07-23T14:15:59.308Z,4.27
2017-07-23T14:18:26.764Z,4.60
2017-07-23T14:20:54.207Z,4.03
2017-07-23T14:23:22.067Z,4.70
2017-07-23T14:25:49.988Z,5.87
2017-07-23T14:28:17.428Z,6.83
2017-07-23T14:30:45.219Z,6.80
2017-07-23T14:33:12.772Z,3.53
2017-07-23T14:35:40.214Z,3.50
2017-07-23T14:38:07.697Z,2.50
2017-07-23T14:40:35.140Z,4.73
2017-07-23T14:43:02.585Z,18.77
2017-07-23T14:45:30.053Z,9.53
2017-07-23T14:47:57.495Z,3.57
2017-07-23T14:50:24.936Z,3.50
2017-07-23T14:52:52.724Z,2.50
2017-07-23T14:55:20.191Z,3.77
2017-07-23T14:57:47.616Z,3.07
2017-07-23T15:00:15.100Z,6.60
2017-07-23T15:02:42.584Z,3.90
2017-07-23T15:05:10.421Z,3.67
2017-07-23T15:07:37.882Z,3.50
2017-07-23T15:10:05.323Z,4.83
2017-07-23T15:12:32.772Z,5.40
2017-07-23T15:15:00.479Z,4.63
2017-07-23T15:17:27.935Z,16.50
2017-07-23T15:19:55.384Z,7.10
2017-07-23T15:22:22.876Z,4.60
2017-07-23T15:24:50.312Z,3.90
2017-07-23T15:27:17.808Z,4.93
2017-07-23T15:29:45.572Z,3.73
2017-07-23T15:32:13.057Z,5.67
2017-07-23T15:34:40.900Z,7.13
2017-07-23T15:37:08.657Z,7.37
2017-07-23T15:39:36.138Z,7.57
2017-07-23T15:42:03.612Z,6.20
2017-07-23T15:44:31.096Z,5.13
2017-07-23T15:46:58.527Z,5.00
2017-07-23T15:49:26.006Z,5.10
2017-07-23T15:51:53.703Z,5.37
2017-07-23T15:54:21.148Z,4.53
2017-07-23T15:56:48.734Z,5.27
2017-07-23T15:59:16.477Z,4.93
2017-07-23T16:01:43.924Z,6.90
2017-07-23T16:04:11.372Z,8.03
2017-07-23T16:06:39.183Z,25.57
2017-07-23T16:09:06.623Z,11.63
2017-07-23T16:11:34.465Z,4.47
2017-07-23T16:14:01.953Z,5.13
2017-07-23T16:16:29.792Z,5.30
2017-07-23T16:18:57.233Z,5.23
2017-07-23T16:21:24.708Z,4.50
2017-07-23T16:23:52.144Z,9.30
2017-07-23T16:26:19.592Z,6.13
2017-07-23T16:28:47.337Z,6.10
2017-07-23T16:31:14.781Z,4.57
2017-07-23T16:33:42.229Z,6.67
2017-07-23T16:36:09.701Z,4.23
2017-07-23T16:38:38.027Z,9.70
2017-07-23T16:41:05.740Z,10.13
2017-07-23T16:43:33.697Z,7.30
2017-07-23T16:46:01.161Z,6.43
2017-07-23T16:48:28.592Z,5.70
2017-07-23T16:50:56.400Z,5.20
2017-07-23T16:53:23.853Z,14.97
2017-07-23T16:55:51.300Z,19.93
2017-07-23T16:58:19.083Z,14.93
2017-07-23T17:00:46.524Z,7.73
2017-07-23T17:03:14.796Z,7.67
2017-07-23T17:05:42.570Z,8.10
2017-07-23T17:08:10.043Z,12.80
2017-07-23T17:10:37.480Z,10.20
2017-07-23T17:13:05.139Z,11.60
2017-07-23T17:15:32.596Z,13.17
2017-07-23T17:18:00.076Z,17.27
2017-07-23T17:20:27.932Z,11.80
2017-07-23T17:22:55.394Z,10.30
2017-07-23T17:25:22.848Z,10.77
2017-07-23T17:27:50.712Z,8.57
2017-07-23T17:30:18.156Z,13.03
2017-07-23T17:32:45.596Z,9.20
2017-07-23T17:35:13.269Z,8.93
2017-07-23T17:37:40.724Z,33.53
2017-07-23T17:40:08.208Z,36.63
2017-07-23T17:42:36.066Z,12.87
2017-07-23T17:45:03.907Z,14.63
2017-07-23T17:47:31.660Z,6.93
2017-07-23T17:49:59.114Z,41.30
2017-07-23T17:52:26.556Z,31.90
2017-07-23T17:54:54.125Z,12.50
2017-07-23T17:57:21.581Z,12.93
2017-07-23T17:59:49.033Z,14.97
2017-07-23T18:02:16.637Z,14.93
2017-07-23T18:04:44.488Z,14.77
2017-07-23T18:07:11.924Z,9.97
2017-07-23T18:09:39.496Z,12.60
2017-07-23T18:27:50.965Z,8.57
2017-07-23T18:30:18.422Z,8.83
2017-07-23T18:32:45.985Z,18.43
2017-07-23T18:35:13.440Z,19.40
2017-07-23T18:37:40.902Z,15.20
2017-07-23T18:40:08.375Z,9.50
2017-07-23T18:42:35.812Z,7.73
2017-07-23T18:45:03.656Z,10.20
2017-07-23T18:47:31.425Z,9.33
2017-07-23T18:49:58.878Z,10.03
2017-07-23T18:52:26.329Z,11.13
2017-07-23T18:54:53.903Z,10.50
2017-07-23T18:57:21.340Z,10.83
2017-07-23T18:59:48.794Z,10.97
2017-07-23T19:02:16.279Z,13.67
2017-07-23T19:04:44.116Z,19.80
2017-07-23T19:07:11.642Z,20.63
2017-07-23T19:09:39.097Z,11.97
2017-07-23T19:12:06.551Z,10.97
2017-07-23T19:14:34.014Z,31.77
2017-07-23T19:17:01.882Z,8.00
2017-07-23T19:19:29.349Z,28.97
2017-07-23T19:21:56.844Z,27.57
2017-07-23T19:24:24.498Z,21.40
2017-07-23T19:26:52.062Z,15.37
2017-07-23T19:29:19.533Z,12.40
2017-07-23T19:31:47.252Z,10.47
2017-07-23T19:34:14.755Z,9.50
2017-07-23T19:36:42.216Z,10.00
2017-07-23T19:39:10.897Z,11.93
2017-07-23T19:41:38.696Z,8.50
2017-07-23T19:44:06.335Z,9.73
2017-07-23T19:46:34.090Z,14.50
2017-07-23T19:49:01.618Z,8.70
2017-07-23T19:51:29.136Z,9.13
2017-07-23T19:53:56.720Z,12.70
2017-07-23T19:56:24.610Z,8.00
2017-07-23T19:58:52.108Z,8.17
2017-07-23T20:01:20.134Z,8.27
2017-07-23T20:03:47.616Z,7.80
2017-07-23T20:06:15.277Z,10.07
2017-07-23T20:08:42.735Z,11.60
2017-07-23T20:11:10.180Z,11.00
2017-07-23T20:13:37.659Z,14.93
2017-07-23T20:16:05.324Z,13.67
2017-07-23T20:18:32.770Z,7.80
2017-07-23T20:21:00.220Z,23.97
2017-07-23T20:23:27.975Z,27.07
2017-07-23T20:25:55.459Z,9.87
2017-07-23T20:28:22.908Z,10.60
2017-07-23T20:30:50.391Z,13.70
2017-07-23T20:33:17.848Z,13.43
2017-07-23T20:35:45.465Z,77.23
2017-07-23T20:38:12.957Z,33.07
2017-07-23T20:40:40.400Z,15.60
2017-07-23T20:43:07.876Z,12.60
2017-07-23T20:45:35.330Z,11.87
2017-07-23T20:48:02.780Z,11.53
2017-07-23T20:50:30.265Z,13.10
2017-07-23T20:52:57.712Z,25.37
2017-07-23T20:55:25.159Z,31.87
2017-07-23T20:57:52.733Z,31.83
2017-07-23T21:00:20.180Z,16.90
2017-07-23T21:02:47.671Z,18.27
2017-07-23T21:05:15.122Z,10.97
2017-07-23T21:07:42.687Z,13.47
2017-07-23T21:10:10.604Z,9.60
2017-07-23T21:12:38.058Z,24.50
2017-07-23T21:15:05.517Z,22.43
2017-07-23T21:17:33.476Z,22.67
2017-07-23T21:20:00.920Z,133.27
2017-07-23T21:22:28.392Z,40.77
2017-07-23T21:24:55.863Z,26.03
2017-07-23T21:27:23.534Z,29.50
2017-07-23T21:29:50.976Z,57.57
2017-07-23T21:32:18.428Z,120.20
2017-07-23T21:34:45.928Z,50.13
2017-07-23T21:37:13.395Z,14.93
2017-07-23T21:39:40.841Z,13.47
2017-07-23T21:42:08.605Z,8.57
2017-07-23T21:44:36.044Z,8.27
2017-07-23T21:47:03.493Z,12.03
2017-07-23T21:49:30.964Z,7.67
2017-07-23T21:51:58.418Z,5.37
2017-07-23T21:54:25.857Z,4.97
2017-07-23T21:56:53.336Z,4.70
2017-07-23T21:59:20.777Z,5.00
2017-07-23T22:01:48.216Z,5.10
2017-07-23T22:04:15.854Z,5.63
2017-07-23T22:06:43.295Z,7.20
2017-07-23T22:09:10.760Z,8.90
2017-07-23T22:11:38.387Z,6.53
2017-07-23T22:14:05.831Z,6.57
2017-07-23T22:16:33.442Z,6.70
2017-07-23T22:19:01.561Z,6.17
2017-07-23T22:21:28.987Z,7.13
2017-07-23T22:23:56.440Z,6.97
2017-07-23T22:26:23.924Z,6.20
2017-07-23T22:28:51.385Z,7.10
2017-07-23T22:31:18.821Z,5.57
2017-07-23T22:33:46.289Z,5.60
2017-07-23T22:36:13.728Z,6.20
2017-07-23T22:38:41.172Z,7.70
2017-07-23T22:41:08.816Z,5.40
2017-07-23T22:43:36.252Z,6.20
2017-07-23T22:46:03.687Z,5.90
2017-07-23T22:48:31.344Z,6.90
2017-07-23T22:50:58.791Z,6.93
2017-07-23T22:53:26.228Z,5.20
2017-07-23T22:55:53.787Z,6.50
2017-07-23T22:58:21.231Z,5.20
2017-07-23T23:00:48.682Z,5.00
2017-07-23T23:03:16.460Z,6.63
2017-07-23T23:05:43.903Z,7.50
2017-07-23T23:08:11.349Z,9.97
2017-07-23T23:10:38.811Z,7.20
2017-07-23T23:13:06.261Z,8.67
2017-07-23T23:15:33.696Z,7.33
2017-07-23T23:18:02.096Z,8.67
2017-07-23T23:20:29.544Z,7.07
2017-07-23T23:22:56.984Z,7.43
2017-07-23T23:25:24.453Z,6.50
2017-07-23T23:27:51.896Z,6.40
2017-07-23T23:30:19.336Z,6.03
2017-07-23T23:32:46.820Z,6.57
2017-07-23T23:35:14.260Z,7.33
2017-07-23T23:37:41.697Z,7.23
2017-07-23T23:40:09.416Z,8.20
2017-07-23T23:42:36.847Z,7.70
2017-07-23T23:45:04.302Z,8.23
2017-07-23T23:47:31.781Z,6.97
2017-07-23T23:49:59.217Z,7.70
2017-07-23T23:52:26.656Z,6.30
2017-07-23T23:54:54.119Z,6.40
2017-07-23T23:57:21.555Z,6.73
2017-07-23T23:59:49.001Z,10.63
